Mans de Ciudad Jardin Bairoa, Puerto Rico
Current Conditions -  °F | °C
As of 5:56 AM on Sunday 28 Dec 2014 (Local Time) from TJSJ Reporting Station
Scattered Clouds Scattered Clouds  
Wind Chill: 74°   Ceiling: Unl
Heat Index: 74°   Visibility: 10mi
Dew Point: 70°   Wind: 3mph
Humidity: 87%   Direction: NA
Pressure: 30.03"   Gusts: NA
Location:  18.2351°N, 66.0374°W
Report Text: TJSJ 280956Z VRB03KT 10SM SCT025 23/21 A3003 RMK AO2 SLP166 T02330211
Loading
Personal Weather Stations






























Interactive Weather Map New forecast layout! Learn more

10-Day Weather Forecast

Advertisements
Track Severe Weather on mobile